Thursday, November 23, 2017, 2:16 AM EST
Back to Local

KDXR, Danbury Municipal Airport

Location: Danbury, CT, United States Lat: 41.367
Local Time: 2:16 AM EST ( 7:16 GMT) Lon: -73.483
Time Zone: US/Eastern Elev: 459 ft

Show me the last for .
Show Decoded

2017-11-23 01:53 METAR KDXR 230653Z AUTO 36004KT 10SM FEW031 00/M06 A3005 RMK AO2 SLP177
                 T00001056 =
2017-11-23 00:53 METAR KDXR 230553Z AUTO 00000KT 10SM CLR 01/M05 A3005 RMK AO2 SLP179 T00061050
                 10044 20000 52008 =
2017-11-22 23:53 METAR KDXR 230453Z AUTO 33007KT 10SM CLR 01/M05 A3004 RMK AO2 SLP176 T00111050
                 401000011 =
2017-11-22 22:53 METAR KDXR 230353Z AUTO 33007KT 10SM CLR 02/M05 A3004 RMK AO2 SLP174 T00171050 =
2017-11-22 21:53 METAR KDXR 230253Z 33009G14KT 10SM FEW038 03/M04 A3003 RMK AO2 SLP171 T00281044
                 53013 =
2017-11-22 20:53 METAR KDXR 230153Z 31010G15KT 10SM OVC039 03/M04 A3002 RMK AO2 SLP166 T00331044
                 =
2017-11-22 19:53 METAR KDXR 230053Z 34007KT 10SM BKN041 03/M04 A3000 RMK AO2 SLP160 T00331039 =
2017-11-22 18:53 METAR KDXR 222353Z 32008G19KT 10SM SCT036 BKN044 04/M03 A2999 RMK AO2 SLP157
                 60000 T00441028 10094 20044 53020 =
2017-11-22 17:53 METAR KDXR 222253Z 34006KT 10SM BKN041 05/M01 A2996 RMK AO2 SLP148 T00501011 =
2017-11-22 16:53 METAR KDXR 222153Z 33006KT 10SM FEW037 06/M01 A2995 RMK AO2 SLP144 T00561011 =
2017-11-22 15:53 METAR KDXR 222053Z 32008G17KT 10SM SCT060 07/00 A2993 RMK AO2 SLP137 60000
                 T00670000 51019 =
2017-11-22 14:53 METAR KDXR 221953Z 34009G19KT 10SM BKN045 07/00 A2992 RMK AO2 SLP132 T00670000 =
2017-11-22 13:53 METAR KDXR 221853Z 34011G19KT 10SM SCT017 OVC030 07/02 A2990 RMK AO2
                 RAE1756B17E31 SLP128 P0000 T00720017 =
2017-11-22 13:08 METAR KDXR 221808Z 35010G16KT 10SM BKN014 OVC021 09/06 A2987 RMK AO2 RAE1756
                 P0000 T00890061 =
2017-11-22 12:53 METAR KDXR 221753Z 32008KT 10SM -RA BKN019 OVC070 09/07 A2987 RMK AO2 SLP117
                 P0000 60005 T00940067 10100 20061 55014 =
2017-11-22 11:53 METAR KDXR 221653Z 32004KT 10SM -RA OVC065 10/06 A2987 RMK AO2 RAB52 SLP116
                 P0000 T01000061 =
2017-11-22 10:53 METAR KDXR 221553Z 00000KT 10SM BKN049 BKN060 OVC110 10/07 A2988 RMK AO2 RAE05
                 SLP118 P0000 T01000067 =
2017-11-22 10:06 METAR KDXR 221506Z 00000KT 7SM FEW020 SCT040 BKN100 09/08 A2990 RMK AO2 RAE05
                 P0000 T00890078 =
2017-11-22 09:53 METAR KDXR 221453Z 00000KT 5SM -RA BR SCT018 BKN025 OVC050 08/07 A2991 RMK AO2
                 SLP130 P0003 60005 T00830072 56001 =
2017-11-22 09:32 METAR KDXR 221432Z 00000KT 3SM -RA BR FEW011 BKN017 OVC028 08/07 A2991 RMK AO2
                 P0002 T00780067 =
2017-11-22 09:09 METAR KDXR 221409Z 00000KT 6SM -RA BR FEW009 BKN014 OVC035 08/06 A2992 RMK AO2
                 P0000 T00780061 =
2017-11-22 09:04 METAR KDXR 221404Z 00000KT 5SM -RA BR SCT014 BKN021 OVC037 07/06 A2992 RMK AO2
                 P0000 T00720061 =
2017-11-22 08:53 METAR KDXR 221353Z 00000KT 5SM -RA BR SCT014 OVC037 07/06 A2991 RMK AO2 SLP130
                 P0002 T00720061 =
2017-11-22 07:53 METAR KDXR 221253Z 00000KT 6SM -RA BR BKN065 OVC095 07/05 A2991 RMK AO2 RAB35
                 SLP128 P0000 T00670050 =
2017-11-22 06:53 METAR KDXR 221153Z 12003KT 10SM FEW038 BKN090 OVC110 06/04 A2992 RMK AO2
                 RAB1055E50 SLP131 P0000 60000 T00610044 10061 20022 56015 =
2017-11-22 05:53 METAR KDXR 221053Z AUTO 00000KT 10SM FEW040 BKN075 OVC120 06/04 A2992 RMK AO2
                 SLP132 T00610039 =
2017-11-22 04:53 METAR KDXR 220953Z AUTO 00000KT 10SM SCT070 SCT085 05/03 A2995 RMK AO2 SLP141
                 T00500033 =
2017-11-22 03:53 METAR KDXR 220853Z AUTO 00000KT 10SM SCT080 04/03 A2996 RMK AO2 SLP147 T00440028
                 58014 =
2017-11-22 02:53 METAR KDXR 220753Z AUTO 01003KT 10SM CLR 04/02 A2998 RMK AO2 SLP152 T00390022 =

Support USWX by starting your Amazon purchase here.